sensor_id;sensor_type;location;lat;lon;timestamp;P1;durP1;ratioP1;P2;durP2;ratioP2
17850;SDS011;9051;51.548;14.348;2022-11-20T00:02:28;13.63;;;9.10;;
17850;SDS011;9051;51.548;14.348;2022-11-20T00:04:59;14.27;;;9.60;;
17850;SDS011;9051;51.548;14.348;2022-11-20T00:07:31;13.27;;;9.00;;
17850;SDS011;9051;51.548;14.348;2022-11-20T00:10:05;13.87;;;9.13;;
17850;SDS011;9051;51.548;14.348;2022-11-20T00:12:37;13.50;;;9.53;;
17850;SDS011;9051;51.548;14.348;2022-11-20T00:15:09;11.70;;;8.63;;
17850;SDS011;9051;51.548;14.348;2022-11-20T00:17:42;12.17;;;8.80;;
17850;SDS011;9051;51.548;14.348;2022-11-20T00:20:14;14.67;;;8.77;;
17850;SDS011;9051;51.548;14.348;2022-11-20T00:22:46;14.07;;;9.13;;
17850;SDS011;9051;51.548;14.348;2022-11-20T00:25:19;13.10;;;9.03;;
17850;SDS011;9051;51.548;14.348;2022-11-20T00:27:51;14.20;;;9.40;;
17850;SDS011;9051;51.548;14.348;2022-11-20T00:30:23;13.23;;;9.07;;
17850;SDS011;9051;51.548;14.348;2022-11-20T00:32:57;11.70;;;8.27;;
17850;SDS011;9051;51.548;14.348;2022-11-20T00:35:31;12.67;;;8.47;;
17850;SDS011;9051;51.548;14.348;2022-11-20T00:38:04;12.43;;;7.67;;
17850;SDS011;9051;51.548;14.348;2022-11-20T00:40:37;12.73;;;8.53;;
17850;SDS011;9051;51.548;14.348;2022-11-20T00:43:09;11.27;;;8.37;;
17850;SDS011;9051;51.548;14.348;2022-11-20T00:45:41;13.13;;;8.73;;
17850;SDS011;9051;51.548;14.348;2022-11-20T00:48:13;13.60;;;9.10;;
17850;SDS011;9051;51.548;14.348;2022-11-20T00:50:45;12.80;;;8.83;;
17850;SDS011;9051;51.548;14.348;2022-11-20T00:53:17;13.57;;;8.63;;
17850;SDS011;9051;51.548;14.348;2022-11-20T00:55:54;13.80;;;8.60;;
17850;SDS011;9051;51.548;14.348;2022-11-20T00:58:28;13.30;;;9.40;;
17850;SDS011;9051;51.548;14.348;2022-11-20T01:01:02;13.40;;;9.07;;
17850;SDS011;9051;51.548;14.348;2022-11-20T01:03:36;14.50;;;9.17;;
17850;SDS011;9051;51.548;14.348;2022-11-20T01:06:10;12.30;;;8.77;;
17850;SDS011;9051;51.548;14.348;2022-11-20T01:08:43;13.43;;;9.03;;
17850;SDS011;9051;51.548;14.348;2022-11-20T01:11:18;14.73;;;9.63;;
17850;SDS011;9051;51.548;14.348;2022-11-20T01:13:51;13.63;;;8.67;;
17850;SDS011;9051;51.548;14.348;2022-11-20T01:16:25;13.67;;;8.97;;
17850;SDS011;9051;51.548;14.348;2022-11-20T01:18:59;14.07;;;9.43;;
17850;SDS011;9051;51.548;14.348;2022-11-20T01:21:33;16.13;;;9.97;;
17850;SDS011;9051;51.548;14.348;2022-11-20T01:24:06;13.90;;;9.17;;
17850;SDS011;9051;51.548;14.348;2022-11-20T01:26:43;15.57;;;9.40;;
17850;SDS011;9051;51.548;14.348;2022-11-20T01:29:16;15.57;;;9.57;;
17850;SDS011;9051;51.548;14.348;2022-11-20T01:31:49;13.63;;;8.83;;
17850;SDS011;9051;51.548;14.348;2022-11-20T01:34:22;16.37;;;10.00;;
17850;SDS011;9051;51.548;14.348;2022-11-20T01:36:55;12.43;;;8.27;;
17850;SDS011;9051;51.548;14.348;2022-11-20T01:39:26;15.90;;;9.67;;
17850;SDS011;9051;51.548;14.348;2022-11-20T01:42:00;18.03;;;9.53;;
17850;SDS011;9051;51.548;14.348;2022-11-20T01:44:51;16.37;;;9.90;;
17850;SDS011;9051;51.548;14.348;2022-11-20T01:47:29;15.10;;;8.73;;
17850;SDS011;9051;51.548;14.348;2022-11-20T01:50:05;15.93;;;10.20;;
17850;SDS011;9051;51.548;14.348;2022-11-20T01:52:47;13.77;;;9.57;;
17850;SDS011;9051;51.548;14.348;2022-11-20T01:55:25;14.03;;;9.30;;
17850;SDS011;9051;51.548;14.348;2022-11-20T01:58:01;14.03;;;9.50;;
17850;SDS011;9051;51.548;14.348;2022-11-20T02:00:34;16.17;;;9.93;;
17850;SDS011;9051;51.548;14.348;2022-11-20T02:03:07;13.87;;;9.23;;
17850;SDS011;9051;51.548;14.348;2022-11-20T02:05:44;15.10;;;9.67;;
17850;SDS011;9051;51.548;14.348;2022-11-20T02:08:19;15.70;;;9.60;;
17850;SDS011;9051;51.548;14.348;2022-11-20T02:10:52;16.53;;;10.07;;
17850;SDS011;9051;51.548;14.348;2022-11-20T02:13:25;16.97;;;10.10;;
17850;SDS011;9051;51.548;14.348;2022-11-20T02:16:17;17.47;;;10.73;;
17850;SDS011;9051;51.548;14.348;2022-11-20T02:18:52;15.87;;;9.97;;
17850;SDS011;9051;51.548;14.348;2022-11-20T02:21:28;15.00;;;10.10;;
17850;SDS011;9051;51.548;14.348;2022-11-20T02:24:07;14.40;;;9.57;;
17850;SDS011;9051;51.548;14.348;2022-11-20T02:26:45;15.33;;;9.97;;
17850;SDS011;9051;51.548;14.348;2022-11-20T02:29:23;16.40;;;9.87;;
17850;SDS011;9051;51.548;14.348;2022-11-20T02:31:57;15.80;;;9.60;;
17850;SDS011;9051;51.548;14.348;2022-11-20T02:34:31;15.30;;;10.20;;
17850;SDS011;9051;51.548;14.348;2022-11-20T02:37:03;15.40;;;9.77;;
17850;SDS011;9051;51.548;14.348;2022-11-20T02:39:37;14.97;;;9.87;;
17850;SDS011;9051;51.548;14.348;2022-11-20T02:42:09;15.23;;;9.90;;
17850;SDS011;9051;51.548;14.348;2022-11-20T02:44:41;16.67;;;9.77;;
17850;SDS011;9051;51.548;14.348;2022-11-20T02:47:13;15.50;;;10.00;;
17850;SDS011;9051;51.548;14.348;2022-11-20T02:49:45;14.93;;;9.90;;
17850;SDS011;9051;51.548;14.348;2022-11-20T02:52:17;17.43;;;10.67;;
17850;SDS011;9051;51.548;14.348;2022-11-20T02:54:51;16.23;;;10.07;;
17850;SDS011;9051;51.548;14.348;2022-11-20T02:57:23;16.57;;;10.80;;
17850;SDS011;9051;51.548;14.348;2022-11-20T02:59:55;18.13;;;10.43;;
17850;SDS011;9051;51.548;14.348;2022-11-20T03:02:29;15.67;;;10.03;;
17850;SDS011;9051;51.548;14.348;2022-11-20T03:05:01;15.50;;;10.13;;
17850;SDS011;9051;51.548;14.348;2022-11-20T03:07:33;15.07;;;9.80;;
17850;SDS011;9051;51.548;14.348;2022-11-20T03:10:08;17.17;;;10.17;;
17850;SDS011;9051;51.548;14.348;2022-11-20T03:12:40;15.83;;;10.07;;
17850;SDS011;9051;51.548;14.348;2022-11-20T03:15:12;16.03;;;10.13;;
17850;SDS011;9051;51.548;14.348;2022-11-20T03:17:44;17.60;;;9.80;;
17850;SDS011;9051;51.548;14.348;2022-11-20T03:20:16;17.63;;;10.57;;
17850;SDS011;9051;51.548;14.348;2022-11-20T03:22:48;16.70;;;9.50;;
17850;SDS011;9051;51.548;14.348;2022-11-20T03:25:22;15.17;;;9.83;;
17850;SDS011;9051;51.548;14.348;2022-11-20T03:27:54;21.37;;;10.17;;
17850;SDS011;9051;51.548;14.348;2022-11-20T03:30:26;15.07;;;9.50;;
17850;SDS011;9051;51.548;14.348;2022-11-20T03:32:58;14.07;;;9.80;;
17850;SDS011;9051;51.548;14.348;2022-11-20T03:35:30;15.73;;;9.27;;
17850;SDS011;9051;51.548;14.348;2022-11-20T03:38:02;15.07;;;10.10;;
17850;SDS011;9051;51.548;14.348;2022-11-20T03:40:35;16.30;;;10.10;;
17850;SDS011;9051;51.548;14.348;2022-11-20T03:43:09;15.83;;;9.63;;
17850;SDS011;9051;51.548;14.348;2022-11-20T03:45:41;15.70;;;9.73;;
17850;SDS011;9051;51.548;14.348;2022-11-20T03:48:13;14.57;;;9.20;;
17850;SDS011;9051;51.548;14.348;2022-11-20T03:50:45;13.67;;;9.60;;
17850;SDS011;9051;51.548;14.348;2022-11-20T03:53:18;17.30;;;10.40;;
17850;SDS011;9051;51.548;14.348;2022-11-20T03:55:51;17.50;;;9.90;;
17850;SDS011;9051;51.548;14.348;2022-11-20T03:58:23;15.60;;;9.73;;
17850;SDS011;9051;51.548;14.348;2022-11-20T04:00:55;14.90;;;9.70;;
17850;SDS011;9051;51.548;14.348;2022-11-20T04:03:28;15.03;;;10.00;;
17850;SDS011;9051;51.548;14.348;2022-11-20T04:06:01;20.17;;;11.20;;
17850;SDS011;9051;51.548;14.348;2022-11-20T04:08:34;16.23;;;10.23;;
17850;SDS011;9051;51.548;14.348;2022-11-20T04:11:12;16.03;;;10.87;;
17850;SDS011;9051;51.548;14.348;2022-11-20T04:13:46;17.87;;;10.27;;
17850;SDS011;9051;51.548;14.348;2022-11-20T04:16:19;18.90;;;10.87;;
17850;SDS011;9051;51.548;14.348;2022-11-20T04:18:52;18.00;;;10.83;;
17850;SDS011;9051;51.548;14.348;2022-11-20T04:21:25;17.77;;;10.37;;
17850;SDS011;9051;51.548;14.348;2022-11-20T04:23:57;19.97;;;11.70;;
17850;SDS011;9051;51.548;14.348;2022-11-20T04:26:31;19.87;;;11.33;;
17850;SDS011;9051;51.548;14.348;2022-11-20T04:29:03;17.73;;;10.07;;
17850;SDS011;9051;51.548;14.348;2022-11-20T04:31:36;19.07;;;11.33;;
17850;SDS011;9051;51.548;14.348;2022-11-20T04:34:10;18.67;;;11.27;;
17850;SDS011;9051;51.548;14.348;2022-11-20T04:36:43;18.13;;;11.47;;
17850;SDS011;9051;51.548;14.348;2022-11-20T04:39:15;19.57;;;11.40;;
17850;SDS011;9051;51.548;14.348;2022-11-20T04:41:48;18.97;;;10.80;;
17850;SDS011;9051;51.548;14.348;2022-11-20T04:44:41;17.30;;;10.53;;
17850;SDS011;9051;51.548;14.348;2022-11-20T04:47:13;20.97;;;11.73;;
17850;SDS011;9051;51.548;14.348;2022-11-20T04:49:45;19.03;;;10.83;;
17850;SDS011;9051;51.548;14.348;2022-11-20T04:52:17;19.10;;;11.07;;
17850;SDS011;9051;51.548;14.348;2022-11-20T04:54:49;19.50;;;11.13;;
17850;SDS011;9051;51.548;14.348;2022-11-20T04:57:24;20.30;;;11.10;;
17850;SDS011;9051;51.548;14.348;2022-11-20T04:59:56;19.30;;;10.67;;
17850;SDS011;9051;51.548;14.348;2022-11-20T05:02:28;19.53;;;10.67;;
17850;SDS011;9051;51.548;14.348;2022-11-20T05:05:02;22.10;;;11.87;;
17850;SDS011;9051;51.548;14.348;2022-11-20T05:07:34;21.27;;;11.60;;
17850;SDS011;9051;51.548;14.348;2022-11-20T05:10:06;18.03;;;10.67;;
17850;SDS011;9051;51.548;14.348;2022-11-20T05:12:40;19.10;;;11.80;;
17850;SDS011;9051;51.548;14.348;2022-11-20T05:15:12;17.77;;;10.33;;
17850;SDS011;9051;51.548;14.348;2022-11-20T05:17:46;17.53;;;10.47;;
17850;SDS011;9051;51.548;14.348;2022-11-20T05:20:18;18.07;;;11.50;;
17850;SDS011;9051;51.548;14.348;2022-11-20T05:22:51;17.47;;;11.23;;
17850;SDS011;9051;51.548;14.348;2022-11-20T05:25:23;17.27;;;10.93;;
17850;SDS011;9051;51.548;14.348;2022-11-20T05:27:56;20.07;;;10.67;;
17850;SDS011;9051;51.548;14.348;2022-11-20T05:30:28;19.63;;;11.60;;
17850;SDS011;9051;51.548;14.348;2022-11-20T05:33:00;20.33;;;12.20;;
17850;SDS011;9051;51.548;14.348;2022-11-20T05:35:32;18.93;;;11.00;;
17850;SDS011;9051;51.548;14.348;2022-11-20T05:38:04;19.83;;;11.30;;
17850;SDS011;9051;51.548;14.348;2022-11-20T05:40:36;21.60;;;12.40;;
17850;SDS011;9051;51.548;14.348;2022-11-20T05:43:10;22.03;;;12.33;;
17850;SDS011;9051;51.548;14.348;2022-11-20T05:45:42;19.70;;;11.50;;
17850;SDS011;9051;51.548;14.348;2022-11-20T05:48:14;20.63;;;12.10;;
17850;SDS011;9051;51.548;14.348;2022-11-20T05:50:46;19.63;;;11.63;;
17850;SDS011;9051;51.548;14.348;2022-11-20T05:53:18;22.50;;;12.50;;
17850;SDS011;9051;51.548;14.348;2022-11-20T05:55:55;22.57;;;11.97;;
17850;SDS011;9051;51.548;14.348;2022-11-20T05:58:29;22.50;;;11.23;;
17850;SDS011;9051;51.548;14.348;2022-11-20T06:01:03;21.40;;;12.43;;
17850;SDS011;9051;51.548;14.348;2022-11-20T06:03:36;22.17;;;11.80;;
17850;SDS011;9051;51.548;14.348;2022-11-20T06:06:09;20.03;;;11.90;;
17850;SDS011;9051;51.548;14.348;2022-11-20T06:08:41;21.23;;;12.40;;
17850;SDS011;9051;51.548;14.348;2022-11-20T06:11:14;21.73;;;12.13;;
17850;SDS011;9051;51.548;14.348;2022-11-20T06:13:47;21.10;;;12.07;;
17850;SDS011;9051;51.548;14.348;2022-11-20T06:16:19;21.67;;;12.77;;
17850;SDS011;9051;51.548;14.348;2022-11-20T06:18:51;24.07;;;12.87;;
17850;SDS011;9051;51.548;14.348;2022-11-20T06:21:23;23.03;;;12.23;;
17850;SDS011;9051;51.548;14.348;2022-11-20T06:23:55;20.83;;;12.13;;
17850;SDS011;9051;51.548;14.348;2022-11-20T06:26:28;21.10;;;12.03;;
17850;SDS011;9051;51.548;14.348;2022-11-20T06:29:02;22.13;;;13.37;;
17850;SDS011;9051;51.548;14.348;2022-11-20T06:31:34;20.27;;;12.30;;
17850;SDS011;9051;51.548;14.348;2022-11-20T06:34:07;22.37;;;13.20;;
17850;SDS011;9051;51.548;14.348;2022-11-20T06:36:40;23.27;;;12.87;;
17850;SDS011;9051;51.548;14.348;2022-11-20T06:39:11;22.63;;;12.43;;
17850;SDS011;9051;51.548;14.348;2022-11-20T06:41:43;25.40;;;13.87;;
17850;SDS011;9051;51.548;14.348;2022-11-20T06:44:17;21.70;;;12.67;;
17850;SDS011;9051;51.548;14.348;2022-11-20T06:46:49;21.47;;;13.10;;
17850;SDS011;9051;51.548;14.348;2022-11-20T06:49:21;23.80;;;13.30;;
17850;SDS011;9051;51.548;14.348;2022-11-20T06:51:53;21.37;;;12.37;;
17850;SDS011;9051;51.548;14.348;2022-11-20T06:54:25;22.10;;;13.63;;
17850;SDS011;9051;51.548;14.348;2022-11-20T06:56:57;24.90;;;13.27;;
17850;SDS011;9051;51.548;14.348;2022-11-20T06:59:30;24.40;;;13.50;;
17850;SDS011;9051;51.548;14.348;2022-11-20T07:02:02;22.80;;;13.37;;
17850;SDS011;9051;51.548;14.348;2022-11-20T07:04:34;22.13;;;12.83;;
17850;SDS011;9051;51.548;14.348;2022-11-20T07:07:06;24.50;;;13.77;;
17850;SDS011;9051;51.548;14.348;2022-11-20T07:09:39;25.10;;;13.80;;
17850;SDS011;9051;51.548;14.348;2022-11-20T07:12:11;23.60;;;13.80;;
17850;SDS011;9051;51.548;14.348;2022-11-20T07:14:45;25.27;;;13.90;;
17850;SDS011;9051;51.548;14.348;2022-11-20T07:17:17;22.93;;;13.80;;
17850;SDS011;9051;51.548;14.348;2022-11-20T07:19:49;25.57;;;14.30;;
17850;SDS011;9051;51.548;14.348;2022-11-20T07:22:22;23.57;;;13.43;;
17850;SDS011;9051;51.548;14.348;2022-11-20T07:24:54;23.53;;;13.77;;
17850;SDS011;9051;51.548;14.348;2022-11-20T07:27:25;25.63;;;13.73;;
17850;SDS011;9051;51.548;14.348;2022-11-20T07:29:59;22.57;;;13.07;;
17850;SDS011;9051;51.548;14.348;2022-11-20T07:32:31;24.33;;;13.80;;
17850;SDS011;9051;51.548;14.348;2022-11-20T07:35:04;26.00;;;14.57;;
17850;SDS011;9051;51.548;14.348;2022-11-20T07:37:36;27.60;;;14.47;;
17850;SDS011;9051;51.548;14.348;2022-11-20T07:40:09;22.50;;;13.63;;
17850;SDS011;9051;51.548;14.348;2022-11-20T07:42:46;25.83;;;14.30;;
17850;SDS011;9051;51.548;14.348;2022-11-20T07:45:22;25.90;;;14.70;;
17850;SDS011;9051;51.548;14.348;2022-11-20T07:47:54;24.30;;;13.83;;
17850;SDS011;9051;51.548;14.348;2022-11-20T07:50:27;26.30;;;14.23;;
17850;SDS011;9051;51.548;14.348;2022-11-20T07:53:02;25.37;;;13.80;;
17850;SDS011;9051;51.548;14.348;2022-11-20T07:55:35;26.97;;;15.10;;
17850;SDS011;9051;51.548;14.348;2022-11-20T07:58:07;23.50;;;14.17;;
17850;SDS011;9051;51.548;14.348;2022-11-20T08:00:41;25.13;;;14.27;;
17850;SDS011;9051;51.548;14.348;2022-11-20T08:03:12;26.07;;;14.90;;
17850;SDS011;9051;51.548;14.348;2022-11-20T08:05:44;26.13;;;14.53;;
17850;SDS011;9051;51.548;14.348;2022-11-20T08:08:16;24.80;;;13.83;;
17850;SDS011;9051;51.548;14.348;2022-11-20T08:10:48;23.87;;;13.77;;
17850;SDS011;9051;51.548;14.348;2022-11-20T08:13:20;25.43;;;14.30;;
17850;SDS011;9051;51.548;14.348;2022-11-20T08:16:11;25.43;;;13.53;;
17850;SDS011;9051;51.548;14.348;2022-11-20T08:18:43;25.97;;;15.23;;
17850;SDS011;9051;51.548;14.348;2022-11-20T08:21:15;25.00;;;14.43;;
17850;SDS011;9051;51.548;14.348;2022-11-20T08:23:47;23.50;;;14.33;;
17850;SDS011;9051;51.548;14.348;2022-11-20T08:26:18;21.43;;;12.97;;
17850;SDS011;9051;51.548;14.348;2022-11-20T08:28:53;24.60;;;14.03;;
17850;SDS011;9051;51.548;14.348;2022-11-20T08:31:27;25.87;;;14.13;;
17850;SDS011;9051;51.548;14.348;2022-11-20T08:33:59;25.07;;;14.43;;
17850;SDS011;9051;51.548;14.348;2022-11-20T08:36:32;25.70;;;14.57;;
17850;SDS011;9051;51.548;14.348;2022-11-20T08:39:05;25.53;;;13.67;;
17850;SDS011;9051;51.548;14.348;2022-11-20T08:41:37;24.53;;;13.77;;
17850;SDS011;9051;51.548;14.348;2022-11-20T08:44:09;24.93;;;13.87;;
17850;SDS011;9051;51.548;14.348;2022-11-20T08:46:42;23.33;;;13.87;;
17850;SDS011;9051;51.548;14.348;2022-11-20T08:49:15;23.73;;;13.77;;
17850;SDS011;9051;51.548;14.348;2022-11-20T08:51:48;24.10;;;13.57;;
17850;SDS011;9051;51.548;14.348;2022-11-20T08:54:22;28.37;;;16.07;;
17850;SDS011;9051;51.548;14.348;2022-11-20T08:56:54;24.53;;;15.07;;
17850;SDS011;9051;51.548;14.348;2022-11-20T08:59:26;24.90;;;13.83;;
17850;SDS011;9051;51.548;14.348;2022-11-20T09:01:59;25.07;;;14.30;;
17850;SDS011;9051;51.548;14.348;2022-11-20T09:04:31;25.60;;;14.37;;
17850;SDS011;9051;51.548;14.348;2022-11-20T09:07:03;23.90;;;13.53;;
17850;SDS011;9051;51.548;14.348;2022-11-20T09:09:35;23.07;;;13.57;;
17850;SDS011;9051;51.548;14.348;2022-11-20T09:12:07;24.30;;;13.90;;
17850;SDS011;9051;51.548;14.348;2022-11-20T09:14:39;25.30;;;14.50;;
17850;SDS011;9051;51.548;14.348;2022-11-20T09:17:13;21.70;;;13.53;;
17850;SDS011;9051;51.548;14.348;2022-11-20T09:19:45;23.17;;;13.20;;
17850;SDS011;9051;51.548;14.348;2022-11-20T09:22:17;21.67;;;13.53;;
17850;SDS011;9051;51.548;14.348;2022-11-20T09:24:49;23.00;;;13.63;;
17850;SDS011;9051;51.548;14.348;2022-11-20T09:27:21;21.27;;;12.50;;
17850;SDS011;9051;51.548;14.348;2022-11-20T09:29:53;22.17;;;12.93;;
17850;SDS011;9051;51.548;14.348;2022-11-20T09:32:26;21.77;;;12.83;;
17850;SDS011;9051;51.548;14.348;2022-11-20T09:34:58;23.27;;;14.03;;
17850;SDS011;9051;51.548;14.348;2022-11-20T09:37:31;22.27;;;12.73;;
17850;SDS011;9051;51.548;14.348;2022-11-20T09:40:03;20.73;;;12.47;;
17850;SDS011;9051;51.548;14.348;2022-11-20T09:42:37;22.20;;;12.83;;
17850;SDS011;9051;51.548;14.348;2022-11-20T09:45:17;24.63;;;14.23;;
17850;SDS011;9051;51.548;14.348;2022-11-20T09:48:01;23.10;;;13.77;;
17850;SDS011;9051;51.548;14.348;2022-11-20T09:50:41;20.17;;;12.67;;
17850;SDS011;9051;51.548;14.348;2022-11-20T09:53:21;20.97;;;12.70;;
17850;SDS011;9051;51.548;14.348;2022-11-20T09:55:57;23.13;;;13.27;;
17850;SDS011;9051;51.548;14.348;2022-11-20T09:58:35;21.37;;;12.80;;
17850;SDS011;9051;51.548;14.348;2022-11-20T10:01:14;20.67;;;12.30;;
17850;SDS011;9051;51.548;14.348;2022-11-20T10:03:51;22.17;;;14.50;;
17850;SDS011;9051;51.548;14.348;2022-11-20T10:06:29;21.33;;;13.50;;
17850;SDS011;9051;51.548;14.348;2022-11-20T10:09:06;22.00;;;13.30;;
17850;SDS011;9051;51.548;14.348;2022-11-20T10:11:51;21.57;;;12.43;;
17850;SDS011;9051;51.548;14.348;2022-11-20T10:14:38;22.13;;;12.97;;
17850;SDS011;9051;51.548;14.348;2022-11-20T10:17:26;21.90;;;13.47;;
17850;SDS011;9051;51.548;14.348;2022-11-20T10:20:14;23.60;;;13.80;;
17850;SDS011;9051;51.548;14.348;2022-11-20T10:22:54;20.07;;;12.70;;
17850;SDS011;9051;51.548;14.348;2022-11-20T10:25:44;22.27;;;12.23;;
17850;SDS011;9051;51.548;14.348;2022-11-20T10:28:23;23.00;;;13.27;;
17850;SDS011;9051;51.548;14.348;2022-11-20T10:31:02;22.63;;;13.97;;
17850;SDS011;9051;51.548;14.348;2022-11-20T10:33:39;21.17;;;13.03;;
17850;SDS011;9051;51.548;14.348;2022-11-20T10:36:16;20.53;;;12.77;;
17850;SDS011;9051;51.548;14.348;2022-11-20T10:38:53;23.93;;;14.03;;
17850;SDS011;9051;51.548;14.348;2022-11-20T10:41:30;22.90;;;13.07;;
17850;SDS011;9051;51.548;14.348;2022-11-20T10:44:09;22.33;;;13.13;;
17850;SDS011;9051;51.548;14.348;2022-11-20T10:47:09;21.03;;;12.93;;
17850;SDS011;9051;51.548;14.348;2022-11-20T10:49:45;22.07;;;12.83;;
17850;SDS011;9051;51.548;14.348;2022-11-20T10:52:22;21.50;;;13.07;;
17850;SDS011;9051;51.548;14.348;2022-11-20T10:55:05;19.63;;;12.83;;
17850;SDS011;9051;51.548;14.348;2022-11-20T10:57:59;20.13;;;12.87;;
17850;SDS011;9051;51.548;14.348;2022-11-20T11:00:37;24.37;;;13.87;;
17850;SDS011;9051;51.548;14.348;2022-11-20T11:03:14;23.30;;;12.63;;
17850;SDS011;9051;51.548;14.348;2022-11-20T11:05:54;22.33;;;12.33;;
17850;SDS011;9051;51.548;14.348;2022-11-20T11:08:34;21.27;;;12.50;;
17850;SDS011;9051;51.548;14.348;2022-11-20T11:11:13;19.37;;;11.90;;
17850;SDS011;9051;51.548;14.348;2022-11-20T11:13:52;21.27;;;12.60;;
17850;SDS011;9051;51.548;14.348;2022-11-20T11:16:25;19.60;;;12.17;;
17850;SDS011;9051;51.548;14.348;2022-11-20T11:19:03;20.63;;;12.27;;
17850;SDS011;9051;51.548;14.348;2022-11-20T11:21:35;18.73;;;12.07;;
17850;SDS011;9051;51.548;14.348;2022-11-20T11:24:19;17.57;;;11.27;;
17850;SDS011;9051;51.548;14.348;2022-11-20T11:26:53;18.93;;;12.17;;
17850;SDS011;9051;51.548;14.348;2022-11-20T11:29:28;21.70;;;12.27;;
17850;SDS011;9051;51.548;14.348;2022-11-20T11:32:05;19.83;;;11.80;;
17850;SDS011;9051;51.548;14.348;2022-11-20T11:34:38;16.97;;;11.17;;
17850;SDS011;9051;51.548;14.348;2022-11-20T11:37:11;16.07;;;10.80;;
17850;SDS011;9051;51.548;14.348;2022-11-20T11:39:49;17.10;;;11.07;;
17850;SDS011;9051;51.548;14.348;2022-11-20T11:42:21;17.03;;;10.87;;
17850;SDS011;9051;51.548;14.348;2022-11-20T11:44:53;18.03;;;11.33;;
17850;SDS011;9051;51.548;14.348;2022-11-20T11:47:42;16.37;;;10.33;;
17850;SDS011;9051;51.548;14.348;2022-11-20T11:50:17;15.47;;;10.20;;
17850;SDS011;9051;51.548;14.348;2022-11-20T11:53:03;15.20;;;10.30;;
17850;SDS011;9051;51.548;14.348;2022-11-20T11:55:42;14.20;;;9.10;;
17850;SDS011;9051;51.548;14.348;2022-11-20T11:58:20;14.17;;;9.67;;
17850;SDS011;9051;51.548;14.348;2022-11-20T12:01:07;14.63;;;9.40;;
17850;SDS011;9051;51.548;14.348;2022-11-20T12:03:53;15.60;;;9.97;;
17850;SDS011;9051;51.548;14.348;2022-11-20T12:06:31;13.40;;;9.37;;
17850;SDS011;9051;51.548;14.348;2022-11-20T12:09:08;13.57;;;9.17;;
17850;SDS011;9051;51.548;14.348;2022-11-20T12:11:45;13.13;;;8.50;;
17850;SDS011;9051;51.548;14.348;2022-11-20T12:14:22;12.53;;;8.40;;
17850;SDS011;9051;51.548;14.348;2022-11-20T12:16:58;13.10;;;8.60;;
17850;SDS011;9051;51.548;14.348;2022-11-20T12:19:33;10.60;;;7.37;;
17850;SDS011;9051;51.548;14.348;2022-11-20T12:22:07;13.60;;;7.87;;
17850;SDS011;9051;51.548;14.348;2022-11-20T12:24:54;11.50;;;7.40;;
17850;SDS011;9051;51.548;14.348;2022-11-20T12:27:41;11.40;;;7.30;;
17850;SDS011;9051;51.548;14.348;2022-11-20T12:30:23;11.73;;;7.07;;
17850;SDS011;9051;51.548;14.348;2022-11-20T12:36:04;10.33;;;7.20;;
17850;SDS011;9051;51.548;14.348;2022-11-20T12:42:02;10.20;;;7.30;;
17850;SDS011;9051;51.548;14.348;2022-11-20T12:45:13;11.33;;;7.47;;
17850;SDS011;9051;51.548;14.348;2022-11-20T12:47:58;13.70;;;8.10;;
17850;SDS011;9051;51.548;14.348;2022-11-20T12:50:46;9.90;;;7.33;;
17850;SDS011;9051;51.548;14.348;2022-11-20T12:53:25;9.97;;;6.53;;
17850;SDS011;9051;51.548;14.348;2022-11-20T12:56:05;11.33;;;7.33;;
17850;SDS011;9051;51.548;14.348;2022-11-20T12:58:55;10.07;;;7.17;;
17850;SDS011;9051;51.548;14.348;2022-11-20T13:01:40;11.07;;;7.20;;
17850;SDS011;9051;51.548;14.348;2022-11-20T13:04:25;9.87;;;7.00;;
17850;SDS011;9051;51.548;14.348;2022-11-20T13:07:17;10.50;;;7.30;;
17850;SDS011;9051;51.548;14.348;2022-11-20T13:09:50;11.53;;;7.37;;
17850;SDS011;9051;51.548;14.348;2022-11-20T13:12:23;10.63;;;6.80;;
17850;SDS011;9051;51.548;14.348;2022-11-20T13:15:04;9.97;;;6.90;;
17850;SDS011;9051;51.548;14.348;2022-11-20T13:17:47;8.60;;;6.47;;
17850;SDS011;9051;51.548;14.348;2022-11-20T13:20:24;11.27;;;7.30;;
17850;SDS011;9051;51.548;14.348;2022-11-20T13:22:56;10.80;;;7.00;;
17850;SDS011;9051;51.548;14.348;2022-11-20T13:25:29;10.37;;;6.97;;
17850;SDS011;9051;51.548;14.348;2022-11-20T13:28:03;10.43;;;7.13;;
17850;SDS011;9051;51.548;14.348;2022-11-20T13:30:56;9.40;;;6.30;;
17850;SDS011;9051;51.548;14.348;2022-11-20T13:33:31;9.63;;;5.70;;
17850;SDS011;9051;51.548;14.348;2022-11-20T13:36:06;9.47;;;6.10;;
17850;SDS011;9051;51.548;14.348;2022-11-20T13:38:51;8.67;;;5.87;;
17850;SDS011;9051;51.548;14.348;2022-11-20T13:41:24;9.03;;;6.30;;
17850;SDS011;9051;51.548;14.348;2022-11-20T13:44:06;8.53;;;6.07;;
17850;SDS011;9051;51.548;14.348;2022-11-20T13:46:44;7.70;;;5.57;;
17850;SDS011;9051;51.548;14.348;2022-11-20T13:49:20;10.87;;;6.70;;
17850;SDS011;9051;51.548;14.348;2022-11-20T13:51:58;11.20;;;7.10;;
17850;SDS011;9051;51.548;14.348;2022-11-20T13:54:43;10.33;;;6.87;;
17850;SDS011;9051;51.548;14.348;2022-11-20T13:57:38;9.57;;;6.77;;
17850;SDS011;9051;51.548;14.348;2022-11-20T14:00:18;9.43;;;5.90;;
17850;SDS011;9051;51.548;14.348;2022-11-20T14:02:58;11.33;;;6.47;;
17850;SDS011;9051;51.548;14.348;2022-11-20T14:05:36;10.13;;;6.20;;
17850;SDS011;9051;51.548;14.348;2022-11-20T14:08:12;10.00;;;7.00;;
17850;SDS011;9051;51.548;14.348;2022-11-20T14:10:48;10.67;;;6.57;;
17850;SDS011;9051;51.548;14.348;2022-11-20T14:13:20;10.87;;;6.70;;
17850;SDS011;9051;51.548;14.348;2022-11-20T14:15:56;11.17;;;7.47;;
17850;SDS011;9051;51.548;14.348;2022-11-20T14:18:29;10.77;;;7.73;;
17850;SDS011;9051;51.548;14.348;2022-11-20T14:21:02;11.77;;;7.20;;
17850;SDS011;9051;51.548;14.348;2022-11-20T14:23:35;11.87;;;7.80;;
17850;SDS011;9051;51.548;14.348;2022-11-20T14:26:17;10.87;;;7.43;;
17850;SDS011;9051;51.548;14.348;2022-11-20T14:28:51;11.97;;;7.80;;
17850;SDS011;9051;51.548;14.348;2022-11-20T14:31:25;9.47;;;6.73;;
17850;SDS011;9051;51.548;14.348;2022-11-20T14:33:58;11.27;;;7.20;;
17850;SDS011;9051;51.548;14.348;2022-11-20T14:36:31;12.07;;;7.50;;
17850;SDS011;9051;51.548;14.348;2022-11-20T14:39:03;10.30;;;6.97;;
17850;SDS011;9051;51.548;14.348;2022-11-20T14:41:36;10.03;;;6.67;;
17850;SDS011;9051;51.548;14.348;2022-11-20T14:44:08;11.07;;;7.17;;
17850;SDS011;9051;51.548;14.348;2022-11-20T14:46:41;10.00;;;7.37;;
17850;SDS011;9051;51.548;14.348;2022-11-20T14:49:14;11.57;;;7.60;;
17850;SDS011;9051;51.548;14.348;2022-11-20T14:51:57;11.30;;;7.43;;
17850;SDS011;9051;51.548;14.348;2022-11-20T14:54:30;10.90;;;7.77;;
17850;SDS011;9051;51.548;14.348;2022-11-20T14:57:03;11.30;;;7.73;;
17850;SDS011;9051;51.548;14.348;2022-11-20T14:59:35;12.70;;;8.03;;
17850;SDS011;9051;51.548;14.348;2022-11-20T15:02:08;12.07;;;8.20;;
17850;SDS011;9051;51.548;14.348;2022-11-20T15:04:45;13.93;;;8.83;;
17850;SDS011;9051;51.548;14.348;2022-11-20T15:07:26;12.33;;;8.50;;
17850;SDS011;9051;51.548;14.348;2022-11-20T15:10:00;13.33;;;8.50;;
17850;SDS011;9051;51.548;14.348;2022-11-20T15:12:34;12.57;;;8.77;;
17850;SDS011;9051;51.548;14.348;2022-11-20T15:15:19;13.67;;;8.83;;
17850;SDS011;9051;51.548;14.348;2022-11-20T15:17:54;13.47;;;8.80;;
17850;SDS011;9051;51.548;14.348;2022-11-20T15:20:27;13.83;;;9.33;;
17850;SDS011;9051;51.548;14.348;2022-11-20T15:23:07;13.77;;;9.10;;